createdAt,value
2023-05-19T00:07:06.269Z,10.44
2023-05-19T00:27:06.230Z,10.32
2023-05-19T00:47:07.360Z,10.17
2023-05-19T01:07:06.713Z,10.13
2023-05-19T01:27:06.454Z,10.06
2023-05-19T01:47:06.714Z,10.11
2023-05-19T02:07:06.840Z,9.83
2023-05-19T02:27:06.561Z,9.11
2023-05-19T02:47:06.686Z,8.65
2023-05-19T03:07:06.708Z,8.37
2023-05-19T03:27:06.660Z,8.19
2023-05-19T03:47:06.781Z,8.26
2023-05-19T04:07:06.787Z,8.51
2023-05-19T04:27:06.785Z,8.7
2023-05-19T04:47:06.978Z,9.45
2023-05-19T05:07:06.905Z,10.43
2023-05-19T05:27:06.879Z,11.39
2023-05-19T05:47:06.951Z,11.94
2023-05-19T06:07:06.999Z,12.33
2023-05-19T06:27:07.021Z,12.96
2023-05-19T06:47:07.260Z,14.14
2023-05-19T07:07:07.056Z,14.63
2023-05-19T07:27:07.232Z,15.25
2023-05-19T07:47:07.256Z,15.74
2023-05-19T08:07:07.189Z,15.62
2023-05-19T08:27:07.226Z,15.64
2023-05-19T08:47:07.297Z,16.49
2023-05-19T09:07:07.188Z,16.87
2023-05-19T09:27:07.340Z,17.83
2023-05-19T09:47:07.346Z,18.89
2023-05-19T10:07:07.327Z,20.83
2023-05-19T10:27:07.507Z,20.04
2023-05-19T10:47:07.535Z,20.21
2023-05-19T11:07:07.506Z,21.5
2023-05-19T11:27:07.380Z,22.51
2023-05-19T11:47:07.531Z,22.74
2023-05-19T12:07:07.521Z,23.63
2023-05-19T12:27:07.590Z,23.76
2023-05-19T12:47:07.583Z,23.77
2023-05-19T13:07:07.687Z,21.26
2023-05-19T13:27:07.553Z,23.19
2023-05-19T13:47:07.700Z,24.63
2023-05-19T14:07:07.728Z,25.14
2023-05-19T14:47:07.841Z,22.11
2023-05-19T15:07:10.596Z,20.99
2023-05-19T15:27:07.774Z,20.88
2023-05-19T15:47:07.817Z,20.25
2023-05-19T16:07:07.859Z,19.1
2023-05-19T16:27:07.847Z,18.51
2023-05-19T16:47:07.747Z,18.53
2023-05-19T17:07:08.243Z,18.13
2023-05-19T17:27:08.185Z,17.81
2023-05-19T17:47:07.920Z,17.7
2023-05-19T18:07:08.017Z,17.2
2023-05-19T18:27:08.025Z,16.76
2023-05-19T18:47:07.962Z,16.31
2023-05-19T19:07:08.039Z,15.83
2023-05-19T19:27:08.190Z,15.58
2023-05-19T19:47:08.536Z,15.28
2023-05-19T20:07:08.132Z,14.99
2023-05-19T20:27:08.763Z,14.94
2023-05-19T20:47:08.290Z,14.84
2023-05-19T21:07:08.279Z,14.56
2023-05-19T21:27:08.397Z,14.64
2023-05-19T21:47:08.363Z,14.7
2023-05-19T22:07:08.379Z,14.72
2023-05-19T22:27:08.465Z,14.7
2023-05-19T22:47:08.315Z,14.65
2023-05-19T23:07:08.381Z,14.52
2023-05-19T23:27:08.413Z,14.09
2023-05-19T23:47:08.629Z,13.78
